Terminal Aerodrome Forecast
Issued by NWS

Home | Current Version | Previous Version | Text Only | Print | Product List | Glossary On
Versions: 1 2 3 4 5 6 7 8 9 10 11 12 13 14 15 16 17 18 19 20 21 22 23
000
FTUS46 KHNX 250640 AAA
TAFBFL
TAF AMD
KBFL 250640Z 2507/2606 33012KT P6SM BKN030 OVC045
     FM251200 32009KT P6SM BKN040
     FM260200 VRB03KT P6SM BKN040=

USA.gov is the U.S. government's official web portal to all federal, state and local government web resources and services.